Terminal Aerodrome Forecast
Issued by NWS

Home | Current Version | Previous Version | Text Only | Print | Product List | Glossary On
Versions: 1 2 3 4 5 6 7 8 9 10 11 12
000
FTUS44 KEPZ 252300
TAFLRU
TAF
KLRU 252325Z 2600/2624 23020G30KT P6SM FEW100 SCT200
     FM260200 24012KT P6SM SCT050 BKN100
     FM260800 25011KT P6SM VCSH SCT015 BKN025 OVC060
      TEMPO 2609/2613 5SM SHRA BKN015 OVC020
     FM261500 27012G20KT P6SM FEW025 BKN050
     FM261900 28015G25KT P6SM FEW050=

USA.gov is the U.S. government's official web portal to all federal, state and local government web resources and services.